Murdock, Kansas
Current Conditions -  °F | °C
As of 9:53 PM on Tuesday 21 Oct 2014 (Local Time) from KICT Reporting Station
Clear Clear  
Wind Chill: 68°   Ceiling: Unl
Heat Index: 68°   Visibility: 10mi
Dew Point: 59°   Wind: 10mph
Humidity: 73%   Direction: 140°SE
Pressure: 30.04"   Gusts: NA
Location:  37.61°N, 97.93°W
Report Text: KICT 220253Z 14009KT 10SM CLR 20/15 A3004 RMK AO2 SLP165 T02000150 53013
Loading
Personal Weather Stations






























Interactive Weather Map
Tropical Storm Tracking
New forecast layout! Learn more

10-Day Weather Forecast

Advertisements
Track Severe Weather on mobile